航空気象通報

ウインドサーファーのための航空気象通報による風予報です。

4/16-17の航空気象通報(国内、海外)

2008年04月16日 21時29分29秒 | TAF
羽田空港
TAF RJTT 160847Z 161812 10008KT 8000 FEW010 BKN025 BKN060
TEMPO 1824 4000 BR
TEMPO 0912 4000 RA BR
日本時間17日03-21時:100度から8ノットの風
、但し、18-21時:一時、

那覇空港
TAF ROAH 160839Z 161812 21008KT 9999 SCT015 BKN030
BECMG 0003 33012KT
TEMPO 0003 4000 SHRA FEW008 SCT010 BKN020 FEW025CB
日本時間17日03-09時:210度から8ノットの風
09-12時:風が変化
12-21時:330度から12ノットの風
、但し、09-12時:一時、

マウイのカフルイ空港
PHOG 161120Z 161212 VRB05KT P6SM BKN060
FM2000 07015KT P6SM FEW050
FM0600 15008KT P6SM SCT050
ハワイ時間16日02-10時:風向不定5ノットの風

10-20時:070度から15ノットの風
20時-17日02時:150度から8ノットの風


サイパン空港
PGSN 161120Z 161212 06008KT P6SM VCSH FEW020
FM2300 07011G17KT P6SM VCSH SCT025
マリアナ時間16日22時-17日09時:060度から8ノットの風
09-22時:070度から11ノット、突風17ノット

コメント